Terminal Aerodrome Forecast
Issued by NWS

Home | Current Version | Previous Version | Text Only | Print | Product List | Glossary On
Versions: 1 2 3 4 5 6 7 8 9 10 11 12 13 14 15 16 17 18 19 20 21 22 23 24 25 26 27 28 29 30
000
FTUS45 KGJT 212326
TAFEGE
TAF
KEGE 212326Z 2200/2224 21010KT P6SM SCT100 BKN200
     FM220200 09003KT P6SM FEW100 BKN200
     FM220800 00000KT P6SM BKN200
     FM221800 VRB03KT P6SM SCT120 BKN200
     FM222100 23008KT P6SM VCTS SCT080CB BKN120
      AMD LTD TO CLD VIS AND WIND 2201/2213=

USA.gov is the U.S. government's official web portal to all federal, state and local government web resources and services.